Time;durP1;ratioP1;P1;durP2;ratioP2;P2;SDS_P1;SDS_P2;PMS_P1;PMS_P2;Temp;Humidity;BMP_temperature;BMP_pressure;BME280_temperature;BME280_humidity;BME280_pressure;Samples;Min_cycle;Max_cycle;Signal;HPM_P1;HPM_P2
2022/01/01 00:02:19;;;;;;;75.57;28.67;;;11.10;99.90;;;;;;5120610;27;20149;-83
2022/01/01 00:04:47;;;;;;;70.93;27.77;;;11.10;99.90;;;;;;5135403;27;20142;-83
2022/01/01 00:07:13;;;;;;;72.30;28.05;;;11.10;99.90;;;;;;5138014;27;20035;-84
2022/01/01 00:09:39;;;;;;;74.10;25.63;;;11.10;99.90;;;;;;5134842;27;20408;-84
2022/01/01 00:12:05;;;;;;;60.85;24.75;;;11.20;99.90;;;;;;5135113;27;20038;-84
2022/01/01 00:14:31;;;;;;;72.93;28.02;;;11.20;99.90;;;;;;5111405;27;20060;-84
2022/01/01 00:16:57;;;;;;;76.32;28.20;;;11.20;99.90;;;;;;5108135;27;20620;-84
2022/01/01 00:19:22;;;;;;;79.25;30.02;;;11.20;99.90;;;;;;5118682;27;20039;-83
2022/01/01 00:21:48;;;;;;;82.00;33.22;;;11.20;99.90;;;;;;5117531;27;20038;-82
2022/01/01 00:24:14;;;;;;;79.47;32.50;;;11.20;99.90;;;;;;5112918;27;20043;-83
2022/01/01 00:26:40;;;;;;;83.63;35.80;;;11.20;99.90;;;;;;5119975;27;20031;-82
2022/01/01 00:29:06;;;;;;;91.78;39.75;;;11.20;99.90;;;;;;5136557;27;20151;-82
2022/01/01 00:31:33;;;;;;;88.93;41.97;;;11.20;99.90;;;;;;5103710;27;20052;-83
2022/01/01 00:33:59;;;;;;;71.43;31.17;;;11.10;99.90;;;;;;5099905;27;20118;-82
2022/01/01 00:36:28;;;;;;;75.82;31.40;;;11.10;99.90;;;;;;5121514;27;20043;-84
2022/01/01 00:38:54;;;;;;;71.00;28.92;;;11.20;99.90;;;;;;5121149;27;20451;-83
2022/01/01 00:41:20;;;;;;;70.60;29.70;;;11.10;99.90;;;;;;5134958;27;20122;-83
2022/01/01 00:43:46;;;;;;;78.78;36.45;;;11.20;99.90;;;;;;5133441;27;20504;-83
2022/01/01 00:46:12;;;;;;;75.03;28.08;;;11.20;99.90;;;;;;5116010;27;20023;-84
2022/01/01 00:48:38;;;;;;;69.72;25.92;;;11.20;99.90;;;;;;5120768;27;20071;-85
2022/01/01 00:51:03;;;;;;;77.97;33.15;;;11.10;99.90;;;;;;5116971;27;20035;-83
2022/01/01 00:53:29;;;;;;;67.15;27.45;;;11.10;99.90;;;;;;5096743;27;20495;-83
2022/01/01 00:55:55;;;;;;;72.07;30.67;;;11.20;99.90;;;;;;5116137;27;20050;-83
2022/01/01 00:58:21;;;;;;;67.13;26.10;;;11.10;99.90;;;;;;5114693;27;20062;-84
2022/01/01 01:00:46;;;;;;;118.75;60.67;;;11.10;99.90;;;;;;5102100;27;20039;-85
2022/01/01 01:03:14;;;;;;;72.47;27.30;;;11.10;99.90;;;;;;5127800;27;20076;-84
2022/01/01 01:05:42;;;;;;;70.82;31.05;;;11.00;99.90;;;;;;5103485;27;20042;-84
2022/01/01 01:08:08;;;;;;;75.35;31.30;;;11.10;99.90;;;;;;5127413;27;20050;-83
2022/01/01 01:10:35;;;;;;;74.25;27.52;;;11.10;99.90;;;;;;5131406;27;20088;-83
2022/01/01 01:13:00;;;;;;;59.20;22.30;;;11.10;99.90;;;;;;5130756;27;20035;-82
2022/01/01 01:15:26;;;;;;;63.38;22.88;;;11.00;99.90;;;;;;5111964;27;20377;-83
2022/01/01 01:17:53;;;;;;;67.45;26.30;;;11.00;99.90;;;;;;5133774;27;20042;-83
2022/01/01 01:20:20;;;;;;;77.05;28.25;;;11.10;99.90;;;;;;5097172;27;20042;-83
2022/01/01 01:22:46;;;;;;;90.40;39.65;;;11.00;99.90;;;;;;5110745;27;20039;-84
2022/01/01 01:25:12;;;;;;;98.15;49.72;;;11.10;99.90;;;;;;5117821;27;20075;-83
2022/01/01 01:27:38;;;;;;;70.03;26.77;;;11.10;99.90;;;;;;5127639;27;20035;-82
2022/01/01 01:30:08;;;;;;;67.45;27.35;;;11.10;99.90;;;;;;5096444;27;20050;-84
2022/01/01 01:32:34;;;;;;;71.80;27.35;;;11.10;99.90;;;;;;5110138;27;20027;-81
2022/01/01 01:35:00;;;;;;;72.05;31.67;;;11.10;99.90;;;;;;5098741;27;20056;-83
2022/01/01 01:37:26;;;;;;;67.22;26.25;;;11.10;99.90;;;;;;5091477;27;20028;-84
2022/01/01 01:39:52;;;;;;;65.20;25.15;;;11.10;99.90;;;;;;5091440;27;20082;-84
2022/01/01 01:42:18;;;;;;;65.78;26.90;;;11.10;99.90;;;;;;5107148;27;20066;-84
2022/01/01 01:44:47;;;;;;;74.60;29.27;;;11.00;99.90;;;;;;5091839;27;20454;-83
2022/01/01 01:47:16;;;;;;;71.20;29.48;;;11.00;99.90;;;;;;5096666;27;20047;-83
2022/01/01 01:49:46;;;;;;;74.82;32.40;;;11.10;99.90;;;;;;5115423;27;20047;-82
2022/01/01 01:52:15;;;;;;;88.10;37.28;;;11.00;99.90;;;;;;5102841;27;20037;-83
2022/01/01 01:54:41;;;;;;;85.90;37.03;;;11.00;99.90;;;;;;5115279;27;20088;-83
2022/01/01 01:57:08;;;;;;;96.50;39.80;;;11.00;99.90;;;;;;5111783;27;20053;-85
2022/01/01 01:59:34;;;;;;;87.72;39.65;;;11.00;99.90;;;;;;5095903;27;20039;-84
2022/01/01 02:01:59;;;;;;;95.35;41.10;;;11.00;99.90;;;;;;5129481;27;20127;-83
2022/01/01 02:04:25;;;;;;;94.50;40.42;;;11.00;99.90;;;;;;5110975;27;20126;-83
2022/01/01 02:06:51;;;;;;;95.57;41.65;;;10.90;99.90;;;;;;5125129;27;20542;-83
2022/01/01 02:09:16;;;;;;;93.20;41.30;;;10.90;99.90;;;;;;5108136;27;20035;-83
2022/01/01 02:11:42;;;;;;;100.38;42.05;;;10.90;99.90;;;;;;5095147;27;20526;-83
2022/01/01 02:14:24;;;;;;;105.00;42.40;;;10.90;99.90;;;;;;5110963;27;20069;-84
2022/01/01 02:19:26;;;;;;;94.53;39.15;;;10.80;99.90;;;;;;5123602;27;20035;-83
2022/01/01 02:21:54;;;;;;;94.00;39.50;;;10.80;99.90;;;;;;5092531;27;20042;-83
2022/01/01 02:24:20;;;;;;;94.35;38.47;;;10.70;99.90;;;;;;5092575;27;20421;-83
2022/01/01 02:26:46;;;;;;;93.57;41.67;;;10.70;99.90;;;;;;5111229;27;20031;-83
2022/01/01 02:29:12;;;;;;;104.45;39.60;;;10.70;99.90;;;;;;5108841;27;20281;-83
2022/01/01 02:31:37;;;;;;;96.03;39.35;;;10.70;99.90;;;;;;5093844;27;20054;-83
2022/01/01 02:34:05;;;;;;;104.55;43.47;;;10.60;99.90;;;;;;5110331;27;20634;-83
2022/01/01 02:36:40;;;;;;;99.95;39.47;;;10.70;99.90;;;;;;5127488;27;20051;-83
2022/01/01 02:39:21;;;;;;;102.78;42.88;;;10.60;99.90;;;;;;5091206;27;20042;-83
2022/01/01 02:41:51;;;;;;;101.38;41.28;;;10.70;99.90;;;;;;5094630;27;20035;-83
2022/01/01 02:44:19;;;;;;;107.18;43.65;;;10.60;99.90;;;;;;5092539;27;20126;-83
2022/01/01 02:46:45;;;;;;;104.05;43.47;;;10.70;99.90;;;;;;5111943;27;20113;-83
2022/01/01 02:49:10;;;;;;;101.50;43.85;;;10.70;99.90;;;;;;5096975;27;20454;-83
2022/01/01 02:51:36;;;;;;;99.28;41.05;;;10.70;99.90;;;;;;5094214;27;20031;-83
2022/01/01 02:54:02;;;;;;;107.30;45.25;;;10.70;99.90;;;;;;5127151;27;20062;-84
2022/01/01 02:56:28;;;;;;;114.22;43.17;;;10.80;99.90;;;;;;5126359;27;20024;-83
2022/01/01 02:58:53;;;;;;;110.45;43.78;;;10.80;99.90;;;;;;5127746;27;20083;-83
2022/01/01 03:01:19;;;;;;;103.18;43.85;;;10.80;99.90;;;;;;5127489;27;20062;-83
2022/01/01 03:03:46;;;;;;;106.97;43.28;;;10.80;99.90;;;;;;5111946;27;20124;-83
2022/01/01 03:06:19;;;;;;;109.13;43.40;;;10.90;99.90;;;;;;5134354;27;20035;-83
2022/01/01 03:08:50;;;;;;;104.07;42.85;;;10.90;99.90;;;;;;5098309;27;20035;-83
2022/01/01 03:11:16;;;;;;;99.80;42.65;;;10.80;99.90;;;;;;5111636;27;20033;-83
2022/01/01 03:13:43;;;;;;;106.55;44.30;;;10.80;99.90;;;;;;5128853;27;20031;-83
2022/01/01 03:16:09;;;;;;;103.60;44.03;;;10.80;99.90;;;;;;5105785;27;20034;-83
2022/01/01 03:18:34;;;;;;;98.97;43.55;;;10.80;99.90;;;;;;5111270;27;20040;-83
2022/01/01 03:21:00;;;;;;;104.55;45.55;;;10.80;99.90;;;;;;5088890;27;20031;-84
2022/01/01 03:23:26;;;;;;;100.28;43.78;;;10.80;99.90;;;;;;5103507;28;20619;-83
2022/01/01 03:25:51;;;;;;;101.43;46.40;;;10.80;99.90;;;;;;5106239;28;20065;-83
2022/01/01 03:28:17;;;;;;;109.68;46.35;;;10.80;99.90;;;;;;5118994;27;20131;-83
2022/01/01 03:30:43;;;;;;;107.97;47.25;;;10.90;99.90;;;;;;5094321;27;20031;-83
2022/01/01 03:33:09;;;;;;;118.10;49.00;;;10.90;99.90;;;;;;5130132;27;20091;-83
2022/01/01 03:35:35;;;;;;;110.28;48.70;;;10.90;99.90;;;;;;5110586;28;20055;-83
2022/01/01 03:38:00;;;;;;;114.03;51.55;;;10.90;99.90;;;;;;5111719;28;20043;-83
2022/01/01 03:40:26;;;;;;;112.53;50.67;;;10.90;99.90;;;;;;5114656;28;20031;-83
2022/01/01 03:42:51;;;;;;;118.45;53.33;;;10.90;99.90;;;;;;5117493;27;20058;-83
2022/01/01 03:45:17;;;;;;;118.30;52.95;;;10.90;99.90;;;;;;5098005;28;20043;-83
2022/01/01 03:47:43;;;;;;;127.95;55.13;;;10.90;99.90;;;;;;5108139;28;20035;-83
2022/01/01 03:50:09;;;;;;;114.70;54.47;;;10.90;99.90;;;;;;5097923;27;20407;-83
2022/01/01 03:52:39;;;;;;;122.97;56.03;;;10.90;99.90;;;;;;5092657;27;20488;-83
2022/01/01 03:55:05;;;;;;;133.02;58.03;;;10.90;99.90;;;;;;5108785;27;20027;-83
2022/01/01 03:57:31;;;;;;;135.65;59.53;;;10.90;99.90;;;;;;5128149;27;20488;-83
2022/01/01 03:59:56;;;;;;;138.88;61.38;;;10.90;99.90;;;;;;5092315;28;20039;-83
2022/01/01 04:02:22;;;;;;;132.70;60.42;;;10.90;99.90;;;;;;5129201;27;20034;-83
2022/01/01 04:04:47;;;;;;;138.98;62.65;;;10.90;99.90;;;;;;5114468;27;20051;-83
2022/01/01 04:07:13;;;;;;;131.93;64.03;;;10.90;99.90;;;;;;5128834;27;20031;-83
2022/01/01 04:09:38;;;;;;;145.25;65.63;;;10.90;99.90;;;;;;5107023;27;20410;-83
2022/01/01 04:12:04;;;;;;;139.52;65.25;;;10.90;99.90;;;;;;5114805;27;20194;-83
2022/01/01 04:14:30;;;;;;;143.10;66.28;;;10.90;99.90;;;;;;5111268;28;20042;-83
2022/01/01 04:16:57;;;;;;;137.70;67.45;;;10.90;99.90;;;;;;5111070;27;20423;-83
2022/01/01 04:19:31;;;;;;;156.18;66.93;;;10.90;99.90;;;;;;5106280;28;20050;-83
2022/01/01 04:21:56;;;;;;;156.10;68.75;;;10.90;99.90;;;;;;5123162;27;20498;-83
2022/01/01 04:24:22;;;;;;;143.13;67.85;;;10.90;99.90;;;;;;5120192;27;20066;-83
2022/01/01 04:26:48;;;;;;;151.38;71.97;;;10.90;99.90;;;;;;5123924;27;20413;-83
2022/01/01 04:29:13;;;;;;;144.00;67.30;;;10.90;99.90;;;;;;5117775;27;20075;-83
2022/01/01 04:31:41;;;;;;;143.35;65.82;;;10.90;99.90;;;;;;5096258;27;20042;-83
2022/01/01 04:34:07;;;;;;;145.35;67.15;;;10.90;99.90;;;;;;5100854;27;20056;-83
2022/01/01 04:36:33;;;;;;;135.55;63.53;;;10.90;99.90;;;;;;5115190;27;20126;-83
2022/01/01 04:38:58;;;;;;;140.15;66.05;;;10.90;99.90;;;;;;5101187;27;20038;-83
2022/01/01 04:41:24;;;;;;;139.63;63.67;;;10.90;99.90;;;;;;5133833;27;20178;-83
2022/01/01 04:43:49;;;;;;;143.05;64.28;;;10.90;99.90;;;;;;5116686;27;20027;-83
2022/01/01 04:46:15;;;;;;;147.15;65.03;;;10.90;99.90;;;;;;5111033;27;20027;-83
2022/01/01 04:48:41;;;;;;;134.85;63.20;;;10.90;99.90;;;;;;5114719;27;20046;-83
2022/01/01 04:51:08;;;;;;;143.85;63.53;;;10.90;99.90;;;;;;5134716;27;20484;-83
2022/01/01 04:53:35;;;;;;;140.13;65.78;;;10.90;99.90;;;;;;5114426;27;20038;-83
2022/01/01 04:56:05;;;;;;;130.60;62.70;;;10.90;99.90;;;;;;5115503;27;20476;-83
2022/01/01 04:58:30;;;;;;;144.85;63.97;;;10.90;99.90;;;;;;5102335;27;20484;-83
2022/01/01 05:00:56;;;;;;;141.65;65.82;;;10.90;99.90;;;;;;5129420;27;20079;-83
2022/01/01 05:03:21;;;;;;;137.25;61.25;;;10.90;99.90;;;;;;5116211;27;20396;-83
2022/01/01 05:05:47;;;;;;;144.20;63.58;;;11.00;99.90;;;;;;5117004;27;20315;-83
2022/01/01 05:08:13;;;;;;;129.07;62.42;;;10.90;99.90;;;;;;5118197;27;20043;-83
2022/01/01 05:10:38;;;;;;;139.00;63.95;;;11.00;99.90;;;;;;5117375;27;20540;-83
2022/01/01 05:13:04;;;;;;;137.77;65.65;;;11.00;99.90;;;;;;5112518;27;20404;-84
2022/01/01 05:15:29;;;;;;;139.27;61.55;;;11.00;99.90;;;;;;5115861;27;20556;-83
2022/01/01 05:17:55;;;;;;;136.23;60.70;;;11.00;99.90;;;;;;5117366;27;20027;-83
2022/01/01 05:20:21;;;;;;;135.20;60.63;;;11.00;99.90;;;;;;5100085;27;20035;-83
2022/01/01 05:22:47;;;;;;;144.00;62.92;;;11.00;99.90;;;;;;5121619;27;20039;-83
2022/01/01 05:25:12;;;;;;;128.23;57.80;;;11.00;99.90;;;;;;5119308;27;20045;-83
2022/01/01 05:27:38;;;;;;;133.18;59.35;;;11.00;99.90;;;;;;5131832;27;20107;-83
2022/01/01 05:30:05;;;;;;;129.85;58.60;;;11.00;99.90;;;;;;5117876;27;20041;-83
2022/01/01 05:32:31;;;;;;;134.07;57.90;;;11.00;99.90;;;;;;5095297;27;20066;-83
2022/01/01 05:34:57;;;;;;;126.70;58.78;;;11.00;99.90;;;;;;5130281;27;20469;-83
2022/01/01 05:37:22;;;;;;;127.05;55.80;;;11.10;99.90;;;;;;5099693;27;20039;-83
2022/01/01 05:39:48;;;;;;;123.88;52.10;;;11.00;99.90;;;;;;5112739;27;20039;-83
2022/01/01 05:42:14;;;;;;;127.07;55.28;;;11.00;99.90;;;;;;5113713;27;20035;-83
2022/01/01 05:44:40;;;;;;;131.52;54.60;;;11.10;99.90;;;;;;5099857;27;20035;-83
2022/01/01 05:47:06;;;;;;;123.55;52.05;;;11.00;99.90;;;;;;5122058;27;20041;-83
2022/01/01 05:49:31;;;;;;;122.88;51.33;;;11.00;99.90;;;;;;5093614;27;20039;-83
2022/01/01 05:51:57;;;;;;;126.30;51.53;;;11.00;99.90;;;;;;5126988;27;20047;-83
2022/01/01 05:54:22;;;;;;;123.22;50.42;;;11.00;99.90;;;;;;5130903;27;20031;-83
2022/01/01 05:56:48;;;;;;;122.05;49.33;;;11.00;99.90;;;;;;5115401;27;20501;-83
2022/01/01 05:59:14;;;;;;;125.90;50.15;;;11.00;99.90;;;;;;5130675;27;20396;-83
2022/01/01 06:01:39;;;;;;;114.82;46.53;;;11.00;99.90;;;;;;5128797;27;20049;-83
2022/01/01 06:04:05;;;;;;;120.00;46.15;;;11.10;99.90;;;;;;5118646;27;20472;-83
2022/01/01 06:06:30;;;;;;;116.93;46.05;;;11.00;99.90;;;;;;5100523;27;20050;-83
2022/01/01 06:08:57;;;;;;;117.03;43.58;;;11.00;99.90;;;;;;5094650;27;20052;-83
2022/01/01 06:11:23;;;;;;;122.70;42.85;;;11.00;99.90;;;;;;5113130;27;20702;-83
2022/01/01 06:13:48;;;;;;;123.32;42.03;;;11.00;99.90;;;;;;5089576;27;20200;-83
2022/01/01 06:16:14;;;;;;;113.10;40.92;;;11.00;99.90;;;;;;5090209;27;20104;-83
2022/01/01 06:18:40;;;;;;;107.18;40.08;;;11.00;99.90;;;;;;5089717;27;20027;-83
2022/01/01 06:21:05;;;;;;;111.35;38.10;;;11.10;99.90;;;;;;5087837;27;20396;-83
2022/01/01 06:23:33;;;;;;;95.30;35.67;;;11.10;99.90;;;;;;5099182;27;20182;-83
2022/01/01 06:25:58;;;;;;;101.30;36.95;;;11.00;99.90;;;;;;5134907;27;20043;-83
2022/01/01 06:28:24;;;;;;;98.45;34.47;;;11.10;99.90;;;;;;5109791;27;20099;-83
2022/01/01 06:30:50;;;;;;;102.60;35.67;;;11.00;99.90;;;;;;5097140;27;20118;-83
2022/01/01 06:33:17;;;;;;;102.47;34.83;;;11.00;99.90;;;;;;5096613;27;20051;-83
2022/01/01 06:35:45;;;;;;;90.72;31.10;;;11.10;99.90;;;;;;5114729;27;20103;-83
2022/01/01 06:38:12;;;;;;;94.88;30.63;;;11.10;99.90;;;;;;5130512;27;20059;-83
2022/01/01 06:40:39;;;;;;;95.20;31.60;;;11.10;99.90;;;;;;5102184;27;20126;-83
2022/01/01 06:43:06;;;;;;;86.63;28.65;;;11.00;99.90;;;;;;5127154;27;20031;-83
2022/01/01 06:45:32;;;;;;;90.53;29.85;;;11.10;99.90;;;;;;5114733;27;20435;-83
2022/01/01 06:47:58;;;;;;;92.35;31.25;;;11.20;99.90;;;;;;5094556;27;20384;-83
2022/01/01 06:50:23;;;;;;;85.72;27.48;;;11.10;99.90;;;;;;5115518;27;20038;-83
2022/01/01 06:52:49;;;;;;;92.95;29.63;;;11.10;99.90;;;;;;5130873;27;20065;-83
2022/01/01 06:55:15;;;;;;;85.40;29.20;;;11.10;99.90;;;;;;5102567;27;20034;-83
2022/01/01 06:57:42;;;;;;;83.63;28.73;;;11.20;99.90;;;;;;5118599;27;20042;-83
2022/01/01 07:00:09;;;;;;;85.43;28.35;;;11.10;99.90;;;;;;5109491;27;20336;-83
2022/01/01 07:02:42;;;;;;;86.18;28.80;;;11.20;99.90;;;;;;5112268;27;20031;-83
2022/01/01 07:05:09;;;;;;;88.07;30.63;;;11.20;99.90;;;;;;5129095;27;20047;-83
2022/01/01 07:07:35;;;;;;;103.78;33.05;;;11.20;99.90;;;;;;5109387;27;20503;-83
2022/01/01 07:10:02;;;;;;;88.05;31.55;;;11.20;99.90;;;;;;5095231;27;20038;-83
2022/01/01 07:12:28;;;;;;;96.75;31.15;;;11.20;99.90;;;;;;5112796;27;20037;-83
2022/01/01 07:14:53;;;;;;;94.22;29.75;;;11.20;99.90;;;;;;5116783;27;20030;-83
2022/01/01 07:17:19;;;;;;;87.38;31.45;;;11.20;99.90;;;;;;5127117;27;20396;-84
2022/01/01 07:19:45;;;;;;;91.80;32.55;;;11.20;99.90;;;;;;5111207;27;20035;-83
2022/01/01 07:22:10;;;;;;;89.05;29.55;;;11.30;99.90;;;;;;5107820;27;20042;-83
2022/01/01 07:24:36;;;;;;;90.70;29.55;;;11.20;99.90;;;;;;5133152;27;20050;-83
2022/01/01 07:27:01;;;;;;;84.25;30.73;;;11.30;99.90;;;;;;5115141;27;20027;-83
2022/01/01 07:29:27;;;;;;;88.70;30.05;;;11.30;99.90;;;;;;5092820;27;20043;-83
2022/01/01 07:31:53;;;;;;;80.72;30.23;;;11.30;99.90;;;;;;5113379;27;20395;-83
2022/01/01 07:34:22;;;;;;;82.95;29.13;;;11.30;99.90;;;;;;5115057;27;20075;-83
2022/01/01 07:36:48;;;;;;;91.85;28.20;;;11.30;99.90;;;;;;5116036;27;20657;-83
2022/01/01 07:39:14;;;;;;;87.35;28.52;;;11.30;99.90;;;;;;5097760;28;20043;-83
2022/01/01 07:41:39;;;;;;;93.93;28.48;;;11.30;99.90;;;;;;5094448;28;20033;-84
2022/01/01 07:44:05;;;;;;;83.32;28.05;;;11.30;99.90;;;;;;5095475;27;20042;-83
2022/01/01 07:46:31;;;;;;;81.95;28.30;;;11.30;99.90;;;;;;5134167;27;20049;-83
2022/01/01 07:48:57;;;;;;;86.32;28.38;;;11.30;99.90;;;;;;5096484;28;20072;-83
2022/01/01 07:51:22;;;;;;;69.78;26.50;;;11.40;99.90;;;;;;5100146;27;20031;-83
2022/01/01 07:53:48;;;;;;;72.22;25.63;;;11.40;99.90;;;;;;5113187;27;20540;-84
2022/01/01 07:56:14;;;;;;;86.07;28.63;;;11.40;99.90;;;;;;5106967;27;20042;-83
2022/01/01 07:58:39;;;;;;;77.82;27.25;;;11.40;99.90;;;;;;5098314;27;20510;-83
2022/01/01 08:01:05;;;;;;;74.50;27.58;;;11.40;99.90;;;;;;5132980;27;20484;-83
2022/01/01 08:03:31;;;;;;;76.05;26.77;;;11.50;99.90;;;;;;5139774;27;20035;-83
2022/01/01 08:05:56;;;;;;;90.57;30.05;;;11.40;99.90;;;;;;5115584;27;20035;-83
2022/01/01 08:08:22;;;;;;;76.82;28.17;;;11.40;99.90;;;;;;5120410;27;20118;-83
2022/01/01 08:10:48;;;;;;;81.88;28.83;;;11.40;99.90;;;;;;5102024;27;20039;-83
2022/01/01 08:13:22;;;;;;;68.68;27.73;;;11.40;99.90;;;;;;5101216;27;20043;-83
2022/01/01 08:15:49;;;;;;;74.95;27.85;;;11.40;99.90;;;;;;5117506;27;20119;-83
2022/01/01 08:18:15;;;;;;;76.40;28.67;;;11.40;99.90;;;;;;5121094;27;20039;-83
2022/01/01 08:20:40;;;;;;;76.43;28.73;;;11.50;99.90;;;;;;5116940;27;20035;-83
2022/01/01 08:23:07;;;;;;;69.85;28.08;;;11.50;99.90;;;;;;5097473;27;20047;-83
2022/01/01 08:25:32;;;;;;;78.38;28.85;;;11.50;99.90;;;;;;5114646;27;20166;-83
2022/01/01 08:27:58;;;;;;;74.95;29.08;;;11.50;99.90;;;;;;5098357;27;20056;-83
2022/01/01 08:30:24;;;;;;;77.85;29.42;;;11.50;99.90;;;;;;5130786;27;20039;-83
2022/01/01 08:32:49;;;;;;;86.05;30.25;;;11.50;99.90;;;;;;5122849;27;20035;-83
2022/01/01 08:35:15;;;;;;;92.82;30.98;;;11.50;99.90;;;;;;5113958;27;20054;-83
2022/01/01 08:37:41;;;;;;;78.40;29.05;;;11.50;99.90;;;;;;5114900;27;21393;-83
2022/01/01 08:40:07;;;;;;;87.60;31.33;;;11.50;99.90;;;;;;5107056;27;20056;-83
2022/01/01 08:42:33;;;;;;;95.43;32.17;;;11.50;99.90;;;;;;5109977;27;20522;-83
2022/01/01 08:44:58;;;;;;;87.47;31.55;;;11.60;99.90;;;;;;5092530;27;20035;-83
2022/01/01 08:47:26;;;;;;;82.57;30.83;;;11.60;99.90;;;;;;5111881;27;20031;-83
2022/01/01 08:49:54;;;;;;;87.22;31.80;;;11.60;99.90;;;;;;5088965;27;20488;-83
2022/01/01 08:52:21;;;;;;;91.38;32.53;;;11.60;99.90;;;;;;5092806;27;20504;-83
2022/01/01 08:54:46;;;;;;;86.88;31.63;;;11.60;99.90;;;;;;5127170;27;20400;-83
2022/01/01 08:57:12;;;;;;;82.63;32.25;;;11.60;99.90;;;;;;5094325;27;20035;-83
2022/01/01 08:59:37;;;;;;;85.18;32.35;;;11.60;99.90;;;;;;5110598;27;20075;-83
2022/01/01 09:02:03;;;;;;;88.00;32.42;;;11.60;99.90;;;;;;5113799;27;20206;-83
2022/01/01 09:04:29;;;;;;;95.03;35.17;;;11.60;99.90;;;;;;5093430;27;20086;-82
2022/01/01 09:06:54;;;;;;;82.13;33.35;;;11.60;99.90;;;;;;5107075;27;20100;-82
2022/01/01 09:09:20;;;;;;;83.15;32.45;;;11.60;99.90;;;;;;5088147;28;20519;-82
2022/01/01 09:11:46;;;;;;;95.78;34.88;;;11.60;99.90;;;;;;5125649;27;20043;-82
2022/01/01 09:14:12;;;;;;;75.75;32.88;;;11.60;99.90;;;;;;5119170;27;20039;-82
2022/01/01 09:16:37;;;;;;;77.10;33.53;;;11.70;99.90;;;;;;5107121;27;20035;-83
2022/01/01 09:19:05;;;;;;;79.32;33.00;;;11.70;99.90;;;;;;5110793;27;20050;-82
2022/01/01 09:21:31;;;;;;;77.50;32.95;;;11.70;99.90;;;;;;5088384;27;20108;-81
2022/01/01 09:23:57;;;;;;;84.57;34.50;;;11.70;99.90;;;;;;5107920;27;20071;-81
2022/01/01 09:26:23;;;;;;;76.13;33.17;;;11.70;99.90;;;;;;5108479;27;20031;-82
2022/01/01 09:28:49;;;;;;;82.97;33.10;;;11.80;99.90;;;;;;5108477;27;20038;-81
2022/01/01 09:31:15;;;;;;;69.40;32.40;;;11.70;99.90;;;;;;5109351;27;20043;-84
2022/01/01 09:33:41;;;;;;;75.15;31.55;;;11.80;99.90;;;;;;5110938;27;20048;-82
2022/01/01 09:36:09;;;;;;;74.47;31.05;;;11.80;99.90;;;;;;5097491;27;20470;-82
2022/01/01 09:38:35;;;;;;;64.97;30.15;;;11.80;99.90;;;;;;5113022;27;20172;-82
2022/01/01 09:41:02;;;;;;;68.00;30.20;;;11.80;99.90;;;;;;5113145;27;20055;-81
2022/01/01 09:43:29;;;;;;;74.95;32.00;;;11.80;99.90;;;;;;5116595;27;20571;-82
2022/01/01 09:45:57;;;;;;;76.70;29.80;;;11.80;99.90;;;;;;5127688;27;20195;-82
2022/01/01 09:48:24;;;;;;;72.10;30.60;;;11.80;99.90;;;;;;5097739;27;20512;-82
2022/01/01 09:50:54;;;;;;;71.95;29.23;;;11.90;99.90;;;;;;5103284;27;20486;-82
2022/01/01 09:53:20;;;;;;;70.95;28.95;;;11.90;99.90;;;;;;5081951;27;20039;-82
2022/01/01 09:55:46;;;;;;;64.18;27.67;;;11.90;99.90;;;;;;5119620;27;20496;-81
2022/01/01 09:58:12;;;;;;;63.65;29.00;;;11.90;99.90;;;;;;5103585;27;20087;-81
2022/01/01 10:00:38;;;;;;;70.75;28.10;;;11.90;99.90;;;;;;5125395;27;20043;-82
2022/01/01 10:03:03;;;;;;;63.17;27.58;;;11.90;99.90;;;;;;5093150;27;20537;-82
2022/01/01 10:05:29;;;;;;;59.30;25.38;;;11.90;99.90;;;;;;5130161;27;20150;-81
2022/01/01 10:08:01;;;;;;;56.65;23.20;;;11.90;99.90;;;;;;5128678;27;20050;-81
2022/01/01 10:10:27;;;;;;;54.55;23.00;;;11.90;99.90;;;;;;5118139;27;20091;-82
2022/01/01 10:12:54;;;;;;;49.03;22.50;;;11.90;99.90;;;;;;5118134;27;20027;-81
2022/01/01 10:15:19;;;;;;;60.60;24.50;;;12.00;99.90;;;;;;5090546;27;20039;-81
2022/01/01 10:17:46;;;;;;;48.85;22.60;;;11.90;99.90;;;;;;5106583;27;20034;-81
2022/01/01 10:20:12;;;;;;;52.58;21.65;;;12.00;99.90;;;;;;5090949;27;20047;-81
2022/01/01 10:22:39;;;;;;;48.83;21.42;;;12.00;99.90;;;;;;5085137;27;20088;-81
2022/01/01 10:28:02;;;;;;;44.10;20.30;;;12.00;99.90;;;;;;5109262;27;20481;-81
2022/01/01 10:30:39;;;;;;;44.50;18.50;;;12.00;99.90;;;;;;5103221;27;20035;-81
2022/01/01 10:33:12;;;;;;;42.67;18.48;;;12.00;99.90;;;;;;5106946;27;20083;-81
2022/01/01 10:35:45;;;;;;;37.78;17.35;;;12.00;99.90;;;;;;5102858;27;20055;-80
2022/01/01 10:38:26;;;;;;;42.40;16.67;;;12.00;99.90;;;;;;5116932;27;20051;-81
2022/01/01 10:41:09;;;;;;;40.47;15.57;;;12.00;99.90;;;;;;5093484;27;20031;-82
2022/01/01 10:43:39;;;;;;;37.63;16.13;;;12.00;99.90;;;;;;5086637;27;20069;-80
2022/01/01 10:46:07;;;;;;;38.08;15.50;;;12.00;99.90;;;;;;5121152;27;20031;-80
2022/01/01 10:51:05;;;;;;;31.15;14.60;;;12.00;99.90;;;;;;5106684;27;20050;-81
2022/01/01 10:53:31;;;;;;;32.55;14.43;;;12.10;99.90;;;;;;5089321;27;20064;-81
2022/01/01 10:55:58;;;;;;;34.30;14.02;;;12.00;99.90;;;;;;5092747;27;20039;-81
2022/01/01 10:58:26;;;;;;;35.13;13.55;;;12.00;99.90;;;;;;5121462;27;20050;-82
2022/01/01 11:00:57;;;;;;;33.90;13.57;;;12.10;99.90;;;;;;5088882;27;20036;-82
2022/01/01 11:03:24;;;;;;;30.42;12.07;;;12.10;99.90;;;;;;5108021;27;20035;-81
2022/01/01 11:06:02;;;;;;;30.45;12.50;;;12.10;99.90;;;;;;5107276;27;20539;-82
2022/01/01 11:08:28;;;;;;;27.13;11.27;;;12.20;99.90;;;;;;5106309;27;20038;-82
2022/01/01 11:10:54;;;;;;;27.75;12.00;;;12.10;99.90;;;;;;5090545;27;20066;-82
2022/01/01 11:13:20;;;;;;;29.10;10.98;;;12.20;99.90;;;;;;5088956;27;20035;-83
2022/01/01 11:15:46;;;;;;;26.02;11.07;;;12.20;99.90;;;;;;5110567;27;20027;-82
2022/01/01 11:18:12;;;;;;;23.67;11.40;;;12.20;99.90;;;;;;5120239;27;20047;-82
2022/01/01 11:20:39;;;;;;;22.98;10.95;;;12.20;99.90;;;;;;5090046;28;20053;-82
2022/01/01 11:23:07;;;;;;;25.10;10.43;;;12.20;99.90;;;;;;5091989;27;20039;-83
2022/01/01 11:25:34;;;;;;;24.40;10.88;;;12.20;99.90;;;;;;5092473;28;20474;-84
2022/01/01 11:28:00;;;;;;;23.13;9.60;;;12.20;99.90;;;;;;5103723;28;20153;-82
2022/01/01 11:30:29;;;;;;;23.08;10.35;;;12.20;99.90;;;;;;5105402;28;20548;-83
2022/01/01 11:33:03;;;;;;;23.63;10.10;;;12.20;99.90;;;;;;5092141;27;20088;-84
2022/01/01 11:35:33;;;;;;;25.67;9.68;;;12.20;99.90;;;;;;5127703;27;20043;-85
2022/01/01 11:38:07;;;;;;;20.90;9.63;;;12.20;99.90;;;;;;5111227;28;20043;-83
2022/01/01 11:40:45;;;;;;;28.52;9.38;;;12.20;99.90;;;;;;5122259;28;20088;-84
2022/01/01 11:43:34;;;;;;;23.08;9.05;;;12.20;99.90;;;;;;5124803;28;20046;-87
2022/01/01 11:46:10;;;;;;;19.55;8.82;;;12.20;99.90;;;;;;5108838;28;20412;-83
2022/01/01 11:48:39;;;;;;;23.42;9.32;;;12.20;99.90;;;;;;5125273;27;20047;-83
2022/01/01 11:51:29;;;;;;;24.45;9.60;;;12.30;99.90;;;;;;5108301;27;20042;-83
2022/01/01 11:54:17;;;;;;;21.77;8.63;;;12.20;99.90;;;;;;5126214;27;20108;-83
2022/01/01 11:56:49;;;;;;;24.52;9.60;;;12.20;99.90;;;;;;5105262;28;20527;-83
2022/01/01 11:59:28;;;;;;;24.55;9.63;;;12.20;99.90;;;;;;5112955;28;20369;-83
2022/01/01 12:02:05;;;;;;;17.70;7.70;;;12.20;99.90;;;;;;5093954;28;20039;-84
2022/01/01 12:04:38;;;;;;;24.38;8.15;;;12.20;99.90;;;;;;5094392;28;20032;-84
2022/01/01 12:07:16;;;;;;;21.48;8.50;;;12.20;99.90;;;;;;5110860;28;20047;-83
2022/01/01 12:10:06;;;;;;;22.40;7.80;;;12.30;99.90;;;;;;5093475;28;20216;-83
2022/01/01 12:12:41;;;;;;;20.02;8.18;;;12.30;99.90;;;;;;5105958;28;20039;-83
2022/01/01 12:15:21;;;;;;;24.27;7.95;;;12.30;99.90;;;;;;5104026;28;20035;-84
2022/01/01 12:18:07;;;;;;;20.13;8.20;;;12.30;99.90;;;;;;5093027;28;20070;-84
2022/01/01 12:20:39;;;;;;;21.25;9.07;;;12.30;99.90;;;;;;5126853;28;20139;-84
2022/01/01 12:23:09;;;;;;;19.05;7.55;;;12.30;99.90;;;;;;5126922;28;20035;-84
2022/01/01 12:25:37;;;;;;;21.52;7.82;;;12.30;99.90;;;;;;5094049;28;20047;-84
2022/01/01 12:28:07;;;;;;;15.68;7.18;;;12.20;99.90;;;;;;5110297;28;20492;-84
2022/01/01 12:30:51;;;;;;;19.63;7.70;;;12.20;99.90;;;;;;5092320;27;20039;-83
2022/01/01 12:33:25;;;;;;;17.38;7.50;;;12.30;99.90;;;;;;5117419;27;20075;-84
2022/01/01 12:35:55;;;;;;;16.42;8.63;;;12.30;99.90;;;;;;5090420;28;20059;-83